EFKE/KEM METAR and TAF weather

Enter ICAO airport designator
Station Type Date Time Source
EFKE METAR 2021/08/02 02:50 UTC NOAA

EFKE 020250Z AUTO 34008KT CAVOK 10/08 Q0999


Station Type Date Time Source
EFKE Decoded METAR 2021/08/02 02:50 UTC NOAA

Kemi, Finland (EFKE) 65-47N 024-35E
Aug 01, 2021 - 10:50 PM EDT / 2021.08.02 0250 UTC
Wind: from the NNW (340 degrees) at 9 MPH (8 KT):0
Visibility: greater than 7 mile(s):0
Temperature: 50 F (10 C)
Dew Point: 46 F (8 C)
Relative Humidity: 87%
Pressure (altimeter): 29.50 in. Hg (0999 hPa)
ob: EFKE 020250Z AUTO 34008KT CAVOK 10/08 Q0999
cycle: 3

Station Type Date Time Source
EFKE TAF 2015/01/12 15:42 UTC NOAA

TAF EFKE 121433Z 1215/1312 03006KT CAVOK
BECMG 1300/1302 9999 BKN015
FM130400 07008KT 9999 SCT014 BKN018
TEMPO 1304/1312 7000 -SN

Example: see airport list